createdAt,value
2018-05-23T00:02:12.638Z,100898.08
2018-05-23T00:04:40.910Z,100895.48
2018-05-23T00:07:09.202Z,100902.09
2018-05-23T00:09:37.475Z,100908.00
2018-05-23T00:12:05.828Z,100909.23
2018-05-23T00:14:34.057Z,100909.15
2018-05-23T00:17:02.356Z,100913.41
2018-05-23T00:19:30.618Z,100911.66
2018-05-23T00:21:58.897Z,100917.44
2018-05-23T00:24:27.183Z,100909.95
2018-05-23T00:26:55.458Z,100911.45
2018-05-23T00:29:23.736Z,100905.94
2018-05-23T00:31:51.998Z,100911.09
2018-05-23T00:34:20.275Z,100907.56
2018-05-23T00:36:48.658Z,100907.67
2018-05-23T00:39:16.926Z,100911.61
2018-05-23T00:41:45.255Z,100908.08
2018-05-23T00:44:13.519Z,100917.03
2018-05-23T00:46:41.790Z,100918.45
2018-05-23T00:49:10.062Z,100918.97
2018-05-23T00:51:38.341Z,100920.59
2018-05-23T00:54:06.618Z,100920.73
2018-05-23T00:56:34.890Z,100918.08
2018-05-23T00:59:03.175Z,100917.93
2018-05-23T01:01:32.115Z,100918.37
2018-05-23T01:04:00.379Z,100922.05
2018-05-23T01:06:28.655Z,100914.66
2018-05-23T01:08:56.937Z,100919.08
2018-05-23T01:11:25.229Z,100912.22
2018-05-23T01:13:53.507Z,100914.50
2018-05-23T01:16:21.790Z,100917.41
2018-05-23T01:18:50.067Z,100911.36
2018-05-23T01:21:18.358Z,100903.23
2018-05-23T01:23:46.639Z,100910.56
2018-05-23T01:26:14.910Z,100906.61
2018-05-23T01:28:43.202Z,100907.25
2018-05-23T01:31:11.478Z,100910.49
2018-05-23T01:33:39.770Z,100904.16
2018-05-23T01:36:08.046Z,100914.86
2018-05-23T01:38:36.334Z,100903.84
2018-05-23T01:41:04.618Z,100907.40
2018-05-23T01:43:32.902Z,100902.45
2018-05-23T01:46:01.198Z,100916.41
2018-05-23T01:48:41.145Z,100927.84
2018-05-23T01:51:09.438Z,100931.09
2018-05-23T01:53:37.721Z,100931.17
2018-05-23T01:56:06.111Z,100933.13
2018-05-23T01:58:34.307Z,100936.92
2018-05-23T02:01:02.634Z,100935.53
2018-05-23T02:03:30.898Z,100935.29
2018-05-23T02:05:59.182Z,100928.58
2018-05-23T02:08:27.470Z,100939.54
2018-05-23T02:10:55.753Z,100936.80
2018-05-23T02:13:24.054Z,100938.34
2018-05-23T02:15:52.333Z,100941.91
2018-05-23T02:18:20.709Z,100940.30
2018-05-23T02:20:48.997Z,100928.78
2018-05-23T02:23:17.282Z,100930.38
2018-05-23T02:25:45.578Z,100933.81
2018-05-23T02:28:13.865Z,100925.78
2018-05-23T02:30:42.146Z,100922.59
2018-05-23T02:33:10.439Z,100922.80
2018-05-23T02:35:38.723Z,100923.25
2018-05-23T02:38:07.035Z,100922.43
2018-05-23T02:40:35.327Z,100923.62
2018-05-23T02:43:03.627Z,100927.89
2018-05-23T02:45:31.928Z,100923.96
2018-05-23T02:48:00.206Z,100926.68
2018-05-23T02:50:28.510Z,100927.94
2018-05-23T02:52:56.793Z,100931.36
2018-05-23T02:55:25.071Z,100938.75
2018-05-23T02:57:53.362Z,100935.31
2018-05-23T03:00:21.650Z,100936.70
2018-05-23T03:02:49.979Z,100943.97
2018-05-23T03:05:18.240Z,100950.61
2018-05-23T03:07:46.524Z,100945.63
2018-05-23T03:10:14.812Z,100942.27
2018-05-23T03:12:43.095Z,100948.70
2018-05-23T03:15:11.403Z,100947.45
2018-05-23T03:17:39.698Z,100948.57
2018-05-23T03:20:07.999Z,100954.86
2018-05-23T03:22:36.297Z,100954.02
2018-05-23T03:25:04.578Z,100950.38
2018-05-23T03:27:32.885Z,100949.09
2018-05-23T03:30:01.166Z,100952.76
2018-05-23T03:32:29.447Z,100960.88
2018-05-23T03:34:57.814Z,100962.90
2018-05-23T03:37:26.094Z,100959.25
2018-05-23T03:39:55.110Z,100966.90
2018-05-23T03:42:26.109Z,100964.21
2018-05-23T03:44:54.403Z,100963.55
2018-05-23T03:47:22.689Z,100967.78
2018-05-23T03:49:50.974Z,100972.31
2018-05-23T03:52:19.713Z,100971.59
2018-05-23T03:54:47.996Z,100970.86
2018-05-23T03:57:16.297Z,100983.89
2018-05-23T03:59:56.354Z,100984.33
2018-05-23T04:02:36.319Z,100987.09
2018-05-23T04:05:16.624Z,100983.53
2018-05-23T04:07:44.917Z,100982.77
2018-05-23T04:10:13.202Z,100985.33
2018-05-23T04:12:41.482Z,100983.38
2018-05-23T04:15:09.767Z,100980.03
2018-05-23T04:17:38.890Z,100980.89
2018-05-23T04:20:07.370Z,100984.97
2018-05-23T04:22:35.660Z,100981.32
2018-05-23T04:25:03.947Z,100991.89
2018-05-23T04:27:32.240Z,100988.84
2018-05-23T04:30:00.525Z,100994.95
2018-05-23T04:32:28.822Z,100996.06
2018-05-23T04:34:57.101Z,100998.76
2018-05-23T04:37:25.382Z,100999.77
2018-05-23T04:39:53.677Z,101002.23
2018-05-23T04:42:21.972Z,100998.47
2018-05-23T04:44:50.274Z,101005.16
2018-05-23T04:47:18.555Z,101000.43
2018-05-23T04:49:46.834Z,101005.37
2018-05-23T04:52:15.130Z,101007.36
2018-05-23T04:54:43.627Z,101006.39
2018-05-23T04:57:11.934Z,101012.23
2018-05-23T04:59:40.230Z,101015.42
2018-05-23T05:02:08.522Z,101012.44
2018-05-23T05:04:36.805Z,101027.68
2018-05-23T05:07:05.118Z,101025.05
2018-05-23T05:09:33.418Z,101033.00
2018-05-23T05:12:01.704Z,101031.98
2018-05-23T05:14:29.995Z,101035.42
2018-05-23T05:16:58.286Z,101033.23
2018-05-23T05:19:26.588Z,101034.30
2018-05-23T05:21:54.870Z,101038.86
2018-05-23T05:24:23.154Z,101038.75
2018-05-23T05:26:51.442Z,101044.55
2018-05-23T05:29:19.759Z,101047.72
2018-05-23T05:31:48.124Z,101050.37
2018-05-23T05:34:16.343Z,101056.02
2018-05-23T05:36:44.622Z,101061.03
2018-05-23T05:39:12.902Z,101063.68
2018-05-23T05:41:41.206Z,101061.75
2018-05-23T05:44:09.528Z,101069.48
2018-05-23T05:46:37.810Z,101073.66
2018-05-23T05:49:06.116Z,101074.13
2018-05-23T05:51:34.397Z,101081.28
2018-05-23T05:54:02.694Z,101085.72
2018-05-23T05:56:31.003Z,101085.43
2018-05-23T05:58:59.282Z,101092.83
2018-05-23T06:01:27.570Z,101090.48
2018-05-23T06:03:56.766Z,101093.48
2018-05-23T06:06:25.107Z,101097.47
2018-05-23T06:08:53.351Z,101099.73
2018-05-23T06:11:21.627Z,101099.34
2018-05-23T06:13:49.921Z,101108.35
2018-05-23T06:16:18.287Z,101114.54
2018-05-23T06:18:46.590Z,101111.12
2018-05-23T06:21:14.874Z,101114.05
2018-05-23T06:23:43.178Z,101118.49
2018-05-23T06:26:11.462Z,101119.50
2018-05-23T06:28:39.742Z,101123.17
2018-05-23T06:31:08.074Z,101116.94
2018-05-23T06:33:36.398Z,101123.48
2018-05-23T06:36:04.677Z,101120.30
2018-05-23T06:38:32.973Z,101123.16
2018-05-23T06:41:01.266Z,101127.27
2018-05-23T06:43:29.658Z,101126.00
2018-05-23T06:45:58.138Z,101123.66
2018-05-23T06:48:26.391Z,101121.02
2018-05-23T06:50:54.714Z,101121.52
2018-05-23T06:53:23.020Z,101120.56
2018-05-23T06:55:51.306Z,101122.77
2018-05-23T06:58:19.634Z,101126.42
2018-05-23T07:00:47.917Z,101128.82
2018-05-23T07:03:16.259Z,101127.91
2018-05-23T07:05:44.577Z,101135.48
2018-05-23T07:08:12.876Z,101138.56
2018-05-23T07:10:41.175Z,101136.88
2018-05-23T07:13:09.454Z,101143.73
2018-05-23T07:15:37.753Z,101149.20
2018-05-23T07:18:06.077Z,101156.10
2018-05-23T07:20:34.369Z,101152.45
2018-05-23T07:23:02.646Z,101155.08
2018-05-23T07:25:30.922Z,101161.05
2018-05-23T07:27:59.227Z,101159.56
2018-05-23T07:30:27.509Z,101157.80
2018-05-23T07:32:55.817Z,101161.09
2018-05-23T07:35:24.114Z,101160.67
2018-05-23T07:37:52.398Z,101160.78
2018-05-23T07:40:20.694Z,101167.02
2018-05-23T07:42:48.982Z,101164.64
2018-05-23T07:45:17.264Z,101168.67
2018-05-23T07:47:45.546Z,101168.91
2018-05-23T07:50:13.842Z,101167.99
2018-05-23T07:52:42.165Z,101169.39
2018-05-23T07:55:10.459Z,101175.06
2018-05-23T07:57:38.770Z,101175.07
2018-05-23T08:00:07.142Z,101178.05
2018-05-23T08:02:35.446Z,101169.16
2018-05-23T08:05:03.745Z,101175.66
2018-05-23T08:07:32.042Z,101178.03
2018-05-23T08:10:00.344Z,101175.27
2018-05-23T08:12:28.659Z,101179.70
2018-05-23T08:14:56.951Z,101183.59
2018-05-23T08:17:25.261Z,101182.99
2018-05-23T08:19:53.554Z,101187.28
2018-05-23T08:22:21.881Z,101190.63
2018-05-23T08:24:50.138Z,101195.14
2018-05-23T08:27:18.447Z,101191.48
2018-05-23T08:29:46.820Z,101194.44
2018-05-23T08:32:15.023Z,101193.09
2018-05-23T08:34:43.330Z,101179.31
2018-05-23T08:37:11.618Z,101184.66
2018-05-23T08:39:39.910Z,101181.59
2018-05-23T08:42:08.197Z,101193.00
2018-05-23T08:44:36.474Z,101192.48
2018-05-23T08:47:04.776Z,101185.00
2018-05-23T08:49:33.054Z,101181.58
2018-05-23T08:52:01.995Z,101193.95
2018-05-23T08:54:30.308Z,101197.34
2018-05-23T08:56:58.578Z,101194.67
2018-05-23T08:59:26.877Z,101198.33
2018-05-23T09:01:55.156Z,101194.41
2018-05-23T09:04:23.439Z,101193.87
2018-05-23T09:06:52.410Z,101195.19
2018-05-23T09:09:20.750Z,101200.34
2018-05-23T09:11:49.030Z,101198.42
2018-05-23T09:14:17.316Z,101201.53
2018-05-23T09:16:45.597Z,101202.17
2018-05-23T09:19:13.888Z,101203.64
2018-05-23T09:21:42.175Z,101214.75
2018-05-23T09:24:10.462Z,101201.64
2018-05-23T09:26:38.746Z,101204.11
2018-05-23T09:29:07.022Z,101207.63
2018-05-23T09:31:35.364Z,101208.17
2018-05-23T09:34:03.607Z,101214.38
2018-05-23T09:36:31.917Z,101213.23
2018-05-23T09:39:00.199Z,101215.68
2018-05-23T09:41:28.482Z,101220.54
2018-05-23T09:43:56.778Z,101217.48
2018-05-23T09:46:25.058Z,101223.81
2018-05-23T09:48:53.366Z,101225.36
2018-05-23T09:51:21.678Z,101228.04
2018-05-23T09:53:49.965Z,101224.60
2018-05-23T09:56:18.260Z,101231.54
2018-05-23T09:58:46.538Z,101232.01
2018-05-23T10:01:14.839Z,101235.05
2018-05-23T10:03:43.113Z,101235.03
2018-05-23T10:06:11.406Z,101235.32
2018-05-23T10:08:39.708Z,101238.62
2018-05-23T10:11:07.986Z,101242.12
2018-05-23T10:13:36.294Z,101241.73
2018-05-23T10:16:04.580Z,101239.80
2018-05-23T10:18:33.633Z,101242.56
2018-05-23T10:21:01.931Z,101248.19
2018-05-23T10:23:30.194Z,101245.84
2018-05-23T10:25:58.510Z,101247.94
2018-05-23T10:28:26.784Z,101248.81
2018-05-23T10:30:55.065Z,101254.31
2018-05-23T10:33:23.445Z,101253.66
2018-05-23T10:35:51.650Z,101257.53
2018-05-23T10:38:19.942Z,101258.57
2018-05-23T10:40:48.262Z,101256.81
2018-05-23T10:43:16.541Z,101257.90
2018-05-23T10:45:44.818Z,101266.77
2018-05-23T10:48:13.090Z,101266.97
2018-05-23T10:50:41.390Z,101271.44
2018-05-23T10:53:09.666Z,101271.25
2018-05-23T10:55:37.954Z,101272.71
2018-05-23T10:58:06.247Z,101269.63
2018-05-23T11:00:34.531Z,101276.31
2018-05-23T11:03:02.923Z,101280.38
2018-05-23T11:05:31.104Z,101282.56
2018-05-23T11:07:59.370Z,101284.64
2018-05-23T11:10:27.669Z,101288.30
2018-05-23T11:12:55.942Z,101288.02
2018-05-23T11:15:24.240Z,101294.83
2018-05-23T11:17:52.529Z,101299.28
2018-05-23T11:20:20.803Z,101297.66
2018-05-23T11:22:49.814Z,101292.52
2018-05-23T11:25:18.090Z,101296.84
2018-05-23T11:27:46.383Z,101290.62
2018-05-23T11:30:14.664Z,101289.38
2018-05-23T11:32:42.954Z,101282.08
2018-05-23T11:35:11.246Z,101282.86
2018-05-23T11:37:39.517Z,101285.16
2018-05-23T11:40:07.810Z,101286.45
2018-05-23T11:45:03.410Z,101286.05
2018-05-23T11:47:31.694Z,101280.09
2018-05-23T11:50:00.006Z,101273.69
2018-05-23T11:52:28.302Z,101279.58
2018-05-23T11:54:56.570Z,101272.84
2018-05-23T11:57:24.880Z,101267.64
2018-05-23T11:59:53.169Z,101266.48
2018-05-23T12:02:21.446Z,101253.30
2018-05-23T12:04:49.861Z,101253.90
2018-05-23T12:07:18.131Z,101256.87
2018-05-23T12:09:47.268Z,101250.63
2018-05-23T12:12:15.563Z,101242.11
2018-05-23T12:14:43.845Z,101235.52
2018-05-23T12:17:12.198Z,101241.53
2018-05-23T12:19:40.497Z,101241.42
2018-05-23T12:22:08.762Z,101243.72
2018-05-23T12:24:37.038Z,101241.56
2018-05-23T12:27:05.361Z,101238.69
2018-05-23T12:29:33.651Z,101239.52
2018-05-23T12:32:01.930Z,101238.44
2018-05-23T12:34:30.222Z,101235.38
2018-05-23T12:36:58.524Z,101247.27
2018-05-23T12:39:26.779Z,101246.75
2018-05-23T12:41:55.054Z,101241.42
2018-05-23T12:44:23.338Z,101244.74
2018-05-23T12:46:51.609Z,101244.00
2018-05-23T12:49:19.902Z,101238.28
2018-05-23T12:51:48.174Z,101236.28
2018-05-23T12:54:16.447Z,101230.97
2018-05-23T12:56:44.726Z,101232.12
2018-05-23T12:59:13.001Z,101226.36
2018-05-23T13:01:41.290Z,101226.94
2018-05-23T13:04:09.566Z,101223.44
2018-05-23T13:06:37.842Z,101218.81
2018-05-23T13:09:07.837Z,101220.74
2018-05-23T13:11:36.138Z,101226.20
2018-05-23T13:14:04.438Z,101223.34
2018-05-23T13:16:32.716Z,101224.84
2018-05-23T13:19:01.078Z,101228.18
2018-05-23T13:21:29.280Z,101223.39
2018-05-23T13:23:57.574Z,101221.12
2018-05-23T13:26:25.858Z,101212.42
2018-05-23T13:28:54.139Z,101211.22
2018-05-23T13:31:23.198Z,101212.89
2018-05-23T13:33:51.481Z,101215.81
2018-05-23T13:36:19.754Z,101206.73
2018-05-23T13:38:49.220Z,101210.13
2018-05-23T13:41:17.440Z,101203.30
2018-05-23T13:43:45.709Z,101198.96
2018-05-23T13:46:13.986Z,101198.41
2018-05-23T13:48:42.258Z,101196.44
2018-05-23T13:51:10.551Z,101193.23
2018-05-23T13:53:38.823Z,101187.53
2018-05-23T13:56:07.090Z,101183.28
2018-05-23T13:58:35.404Z,101183.98
2018-05-23T14:01:03.684Z,101180.44
2018-05-23T14:03:31.966Z,101173.81
2018-05-23T14:06:00.234Z,101171.39
2018-05-23T14:08:39.395Z,101168.64
2018-05-23T14:11:07.681Z,101159.37
2018-05-23T14:13:35.945Z,101156.28
2018-05-23T14:16:04.222Z,101154.78
2018-05-23T14:18:32.494Z,101159.14
2018-05-23T14:21:01.058Z,101162.13
2018-05-23T14:23:29.329Z,101154.55
2018-05-23T14:25:57.624Z,101149.10
2018-05-23T14:28:26.843Z,101147.73
2018-05-23T14:30:55.028Z,101139.53
2018-05-23T14:33:23.326Z,101138.39
2018-05-23T14:35:51.643Z,101131.19
2018-05-23T14:38:19.894Z,101135.16
2018-05-23T14:40:48.186Z,101135.34
2018-05-23T14:43:16.466Z,101128.64
2018-05-23T14:45:45.077Z,101130.27
2018-05-23T14:48:13.345Z,101134.45
2018-05-23T14:50:41.618Z,101131.69
2018-05-23T14:53:09.898Z,101127.47
2018-05-23T14:55:38.198Z,101120.66
2018-05-23T14:58:06.481Z,101124.91
2018-05-23T15:00:34.758Z,101125.77
2018-05-23T15:03:03.400Z,101125.52
2018-05-23T15:05:31.670Z,101123.98
2018-05-23T15:07:59.946Z,101127.88
2018-05-23T15:10:28.843Z,101122.58
2018-05-23T15:12:57.109Z,101121.54
2018-05-23T15:15:25.458Z,101123.41
2018-05-23T15:17:53.742Z,101119.26
2018-05-23T15:20:22.014Z,101116.78
2018-05-23T15:22:50.310Z,101115.53
2018-05-23T15:25:18.594Z,101116.27
2018-05-23T15:27:46.874Z,101117.70
2018-05-23T15:30:15.163Z,101119.52
2018-05-23T15:32:43.450Z,101119.97
2018-05-23T15:35:11.820Z,101114.78
2018-05-23T15:37:40.123Z,101118.94
2018-05-23T15:40:08.388Z,101115.55
2018-05-23T15:42:36.672Z,101114.66
2018-05-23T15:45:04.954Z,101115.05
2018-05-23T15:47:33.234Z,101113.33
2018-05-23T15:50:01.511Z,101105.82
2018-05-23T15:52:29.781Z,101111.45
2018-05-23T15:54:58.058Z,101104.55
2018-05-23T15:57:26.335Z,101108.54
2018-05-23T15:59:54.633Z,101105.11
2018-05-23T16:02:22.901Z,101111.47
2018-05-23T16:04:51.201Z,101105.95
2018-05-23T16:07:19.478Z,101102.09
2018-05-23T16:09:47.755Z,101106.84
2018-05-23T16:12:16.033Z,101107.09
2018-05-23T16:14:44.313Z,101104.04
2018-05-23T16:17:12.582Z,101100.16
2018-05-23T16:19:40.872Z,101095.13
2018-05-23T16:22:09.150Z,101095.48
2018-05-23T16:24:37.512Z,101088.78
2018-05-23T16:27:05.722Z,101092.53
2018-05-23T16:29:34.002Z,101092.75
2018-05-23T16:32:02.289Z,101089.11
2018-05-23T16:34:30.562Z,101085.33
2018-05-23T16:36:58.853Z,101088.28
2018-05-23T16:39:27.122Z,101089.45
2018-05-23T16:41:55.390Z,101089.05
2018-05-23T16:44:23.761Z,101096.85
2018-05-23T16:46:51.995Z,101105.28
2018-05-23T16:49:21.322Z,101102.78
2018-05-23T16:51:49.629Z,101102.54
2018-05-23T16:54:17.953Z,101102.02
2018-05-23T16:56:46.251Z,101103.16
2018-05-23T16:59:14.523Z,101106.20
2018-05-23T17:01:42.822Z,101114.86
2018-05-23T17:04:11.108Z,101113.17
2018-05-23T17:06:39.393Z,101111.02
2018-05-23T17:09:08.650Z,101111.93
2018-05-23T17:11:36.924Z,101109.30
2018-05-23T17:14:05.226Z,101109.20
2018-05-23T17:16:33.506Z,101109.72
2018-05-23T17:19:01.779Z,101106.04
2018-05-23T17:21:30.054Z,101107.50
2018-05-23T17:23:58.419Z,101115.93
2018-05-23T17:26:26.670Z,101111.86
2018-05-23T17:28:54.941Z,101111.58
2018-05-23T17:31:23.225Z,101111.72
2018-05-23T17:33:51.506Z,101116.61
2018-05-23T17:36:19.782Z,101112.81
2018-05-23T17:38:48.070Z,101115.50
2018-05-23T17:41:16.603Z,101125.77
2018-05-23T17:43:44.871Z,101123.00
2018-05-23T17:46:13.161Z,101125.28
2018-05-23T17:48:41.429Z,101127.95
2018-05-23T17:51:09.741Z,101130.45
2018-05-23T17:53:38.022Z,101134.38
2018-05-23T17:56:06.305Z,101129.80
2018-05-23T17:58:34.601Z,101129.67
2018-05-23T18:01:02.858Z,101123.94
2018-05-23T18:03:31.145Z,101129.73
2018-05-23T18:05:59.443Z,101123.99
2018-05-23T18:08:27.694Z,101131.20
2018-05-23T18:10:55.988Z,101129.34
2018-05-23T18:13:24.268Z,101127.65
2018-05-23T18:15:52.581Z,101133.16
2018-05-23T18:18:22.132Z,101135.15
2018-05-23T18:20:50.422Z,101133.31
2018-05-23T18:23:18.838Z,101135.02
2018-05-23T18:25:47.070Z,101137.75
2018-05-23T18:28:15.444Z,101137.70
2018-05-23T18:30:43.642Z,101133.06
2018-05-23T18:33:11.919Z,101129.60
2018-05-23T18:35:40.210Z,101141.82
2018-05-23T18:38:08.487Z,101147.98
2018-05-23T18:40:36.778Z,101147.12
2018-05-23T18:43:05.042Z,101144.55
2018-05-23T18:45:33.310Z,101150.23
2018-05-23T18:48:01.609Z,101156.95
2018-05-23T18:50:29.909Z,101162.99
2018-05-23T18:52:58.197Z,101163.89
2018-05-23T18:55:26.469Z,101163.33
2018-05-23T18:57:54.760Z,101165.36
2018-05-23T19:00:23.061Z,101166.82
2018-05-23T19:02:51.326Z,101172.20
2018-05-23T19:05:19.676Z,101165.95
2018-05-23T19:07:47.905Z,101174.84
2018-05-23T19:10:16.178Z,101177.06
2018-05-23T19:12:44.466Z,101176.58
2018-05-23T19:15:12.739Z,101189.05
2018-05-23T19:17:41.080Z,101193.64
2018-05-23T19:20:09.373Z,101192.66
2018-05-23T19:22:37.615Z,101206.13
2018-05-23T19:25:05.901Z,101199.84
2018-05-23T19:27:34.168Z,101198.97
2018-05-23T19:30:02.457Z,101212.70
2018-05-23T19:32:30.726Z,101209.63
2018-05-23T19:34:58.998Z,101209.49
2018-05-23T19:37:27.289Z,101215.32
2018-05-23T19:39:55.562Z,101223.81
2018-05-23T19:42:24.393Z,101223.52
2018-05-23T19:44:52.669Z,101217.05
2018-05-23T19:47:21.006Z,101228.92
2018-05-23T19:49:49.242Z,101235.11
2018-05-23T19:52:17.515Z,101234.93
2018-05-23T19:54:45.790Z,101238.71
2018-05-23T19:57:14.063Z,101243.45
2018-05-23T19:59:42.335Z,101241.23
2018-05-23T20:02:10.631Z,101237.20
2018-05-23T20:04:38.885Z,101238.98
2018-05-23T20:07:07.168Z,101245.18
2018-05-23T20:09:35.434Z,101237.89
2018-05-23T20:12:03.702Z,101246.41
2018-05-23T20:14:32.073Z,101247.25
2018-05-23T20:17:00.259Z,101240.65
2018-05-23T20:19:28.553Z,101243.47
2018-05-23T20:21:56.899Z,101242.81
2018-05-23T20:24:25.090Z,101250.91
2018-05-23T20:26:53.379Z,101247.58
2018-05-23T20:29:21.671Z,101253.41
2018-05-23T20:31:49.978Z,101244.81
2018-05-23T20:34:18.254Z,101257.39
2018-05-23T20:36:46.519Z,101257.27
2018-05-23T20:39:14.798Z,101257.75
2018-05-23T20:41:43.072Z,101256.32
2018-05-23T20:46:48.662Z,101264.83
2018-05-23T20:49:16.958Z,101265.09
2018-05-23T20:51:45.233Z,101265.37
2018-05-23T20:54:13.513Z,101266.88
2018-05-23T20:56:41.797Z,101277.17
2018-05-23T20:59:10.078Z,101271.95
2018-05-23T21:01:38.433Z,101275.02
2018-05-23T21:04:06.706Z,101277.67
2018-05-23T21:06:34.982Z,101272.73
2018-05-23T21:09:03.262Z,101278.55
2018-05-23T21:11:37.129Z,101280.39
2018-05-23T21:14:05.400Z,101273.27
2018-05-23T21:16:33.966Z,101271.64
2018-05-23T21:19:02.239Z,101272.17
2018-05-23T21:21:30.522Z,101278.17
2018-05-23T21:23:58.795Z,101276.28
2018-05-23T21:26:27.086Z,101277.35
2018-05-23T21:28:55.355Z,101280.55
2018-05-23T21:31:23.617Z,101275.14
2018-05-23T21:33:51.897Z,101277.71
2018-05-23T21:36:20.254Z,101275.80
2018-05-23T21:38:48.554Z,101275.44
2018-05-23T21:41:16.830Z,101273.42
2018-05-23T21:43:45.102Z,101272.60
2018-05-23T21:46:13.387Z,101274.77
2018-05-23T21:48:41.658Z,101273.17
2018-05-23T21:51:09.958Z,101270.32
2018-05-23T21:53:38.226Z,101267.11
2018-05-23T21:56:06.505Z,101261.27
2018-05-23T21:58:34.781Z,101264.05
2018-05-23T22:01:03.054Z,101271.25
2018-05-23T22:03:31.342Z,101271.30
2018-05-23T22:05:59.609Z,101270.68
2018-05-23T22:08:27.881Z,101276.76
2018-05-23T22:10:56.153Z,101273.86
2018-05-23T22:13:24.529Z,101284.37
2018-05-23T22:15:52.818Z,101277.73
2018-05-23T22:18:21.181Z,101267.33
2018-05-23T22:20:49.353Z,101267.80
2018-05-23T22:23:17.638Z,101279.06
2018-05-23T22:25:45.910Z,101266.23
2018-05-23T22:28:15.026Z,101275.28
2018-05-23T22:30:43.333Z,101274.13
2018-05-23T22:33:11.570Z,101264.81
2018-05-23T22:35:39.853Z,101268.51
2018-05-23T22:38:08.118Z,101278.94
2018-05-23T22:40:36.402Z,101279.41
2018-05-23T22:43:04.674Z,101270.95
2018-05-23T22:45:32.947Z,101281.76
2018-05-23T22:48:01.243Z,101284.75
2018-05-23T22:50:29.509Z,101298.13
2018-05-23T22:52:57.797Z,101286.06
2018-05-23T22:55:26.070Z,101285.63
2018-05-23T22:57:54.346Z,101289.30
2018-05-23T23:00:22.642Z,101286.50
2018-05-23T23:02:50.631Z,101283.89
2018-05-23T23:05:18.939Z,101276.09
2018-05-23T23:07:47.214Z,101277.81
2018-05-23T23:10:15.489Z,101282.47
2018-05-23T23:12:43.793Z,101276.18
2018-05-23T23:15:12.099Z,101280.34
2018-05-23T23:17:41.238Z,101276.90
2018-05-23T23:20:09.521Z,101277.87
2018-05-23T23:22:38.586Z,101274.63
2018-05-23T23:25:06.870Z,101267.10
2018-05-23T23:27:35.142Z,101271.60
2018-05-23T23:30:03.433Z,101270.45
2018-05-23T23:32:31.711Z,101277.08
2018-05-23T23:34:59.990Z,101274.52
2018-05-23T23:37:28.276Z,101277.55
2018-05-23T23:39:56.544Z,101273.35
2018-05-23T23:42:24.834Z,101272.13
2018-05-23T23:44:53.115Z,101273.64
2018-05-23T23:47:21.382Z,101274.96
2018-05-23T23:49:49.658Z,101281.35
2018-05-23T23:52:18.238Z,101276.16
2018-05-23T23:54:46.515Z,101272.44
2018-05-23T23:57:14.791Z,101274.21
2018-05-23T23:59:45.002Z,101271.87
